createdAt,value
2023-05-06T00:00:11.960Z,10.43
2023-05-06T00:02:29.381Z,10.44
2023-05-06T00:04:46.900Z,10.41
2023-05-06T00:07:04.244Z,10.37
2023-05-06T00:09:21.600Z,10.29
2023-05-06T00:11:38.598Z,10.23
2023-05-06T00:13:55.857Z,10.16
2023-05-06T00:16:13.263Z,10.10
2023-05-06T00:18:31.051Z,10.05
2023-05-06T00:20:48.308Z,10.00
2023-05-06T00:23:05.574Z,9.97
2023-05-06T00:25:22.927Z,9.91
2023-05-06T00:27:40.314Z,9.86
2023-05-06T00:29:57.583Z,9.83
2023-05-06T00:32:15.826Z,9.82
2023-05-06T00:34:34.085Z,9.78
2023-05-06T00:36:51.434Z,9.74
2023-05-06T00:39:08.698Z,9.72
2023-05-06T00:41:25.960Z,9.70
2023-05-06T00:43:43.163Z,9.67
2023-05-06T00:46:00.577Z,9.65
2023-05-06T00:48:18.029Z,9.68
2023-05-06T00:50:35.314Z,9.72
2023-05-06T00:52:52.606Z,9.74
2023-05-06T00:55:10.059Z,9.71
2023-05-06T00:57:27.945Z,9.69
2023-05-06T00:59:45.159Z,9.67
2023-05-06T01:02:02.490Z,9.66
2023-05-06T01:04:19.526Z,9.69
2023-05-06T01:06:37.753Z,9.67
2023-05-06T01:08:54.658Z,9.59
2023-05-06T01:11:13.027Z,9.60
2023-05-06T01:13:32.362Z,9.66
2023-05-06T01:15:49.258Z,9.63
2023-05-06T01:18:06.575Z,9.61
2023-05-06T01:20:23.869Z,9.52
2023-05-06T01:22:41.175Z,9.45
2023-05-06T01:24:58.495Z,9.45
2023-05-06T01:27:16.812Z,9.46
2023-05-06T01:29:34.147Z,9.46
2023-05-06T01:31:51.479Z,9.47
2023-05-06T01:34:08.796Z,9.54
2023-05-06T01:36:26.551Z,9.64
2023-05-06T01:38:43.836Z,9.71
2023-05-06T01:41:01.234Z,9.70
2023-05-06T01:43:18.535Z,9.61
2023-05-06T01:45:35.870Z,9.55
2023-05-06T01:47:53.214Z,9.52
2023-05-06T01:50:11.540Z,9.51
2023-05-06T01:52:28.573Z,9.47
2023-05-06T01:54:45.839Z,9.45
2023-05-06T01:57:03.154Z,9.48
2023-05-06T01:59:20.042Z,9.51
2023-05-06T02:01:37.725Z,9.52
2023-05-06T02:03:54.845Z,9.52
2023-05-06T02:06:12.184Z,9.53
2023-05-06T02:08:29.550Z,9.52
2023-05-06T02:10:47.187Z,9.54
2023-05-06T02:13:04.523Z,9.54
2023-05-06T02:15:21.763Z,9.59
2023-05-06T02:17:39.128Z,9.64
2023-05-06T02:19:56.395Z,9.72
2023-05-06T02:22:14.696Z,9.77
2023-05-06T02:24:31.982Z,9.75
2023-05-06T02:26:49.065Z,9.72
2023-05-06T02:29:06.364Z,9.72
2023-05-06T02:31:23.714Z,9.73
2023-05-06T02:33:41.062Z,9.73
2023-05-06T02:35:58.433Z,9.79
2023-05-06T02:38:15.728Z,9.84
2023-05-06T02:40:33.098Z,9.81
2023-05-06T02:42:50.041Z,9.78
2023-05-06T02:45:07.612Z,9.78
2023-05-06T02:47:24.659Z,9.75
2023-05-06T02:49:42.368Z,9.75
2023-05-06T02:51:59.991Z,9.77
2023-05-06T02:54:17.387Z,9.76
2023-05-06T02:56:34.298Z,9.72
2023-05-06T02:58:51.353Z,9.70
2023-05-06T03:01:08.308Z,9.70
2023-05-06T03:03:25.629Z,9.72
2023-05-06T03:05:43.030Z,9.73
2023-05-06T03:08:00.278Z,9.75
2023-05-06T03:10:17.566Z,9.76
2023-05-06T03:12:34.566Z,9.72
2023-05-06T03:14:54.137Z,9.71
2023-05-06T03:17:16.258Z,9.64
2023-05-06T03:19:34.101Z,9.59
2023-05-06T03:21:51.425Z,9.53
2023-05-06T03:24:08.426Z,9.49
2023-05-06T03:26:25.678Z,9.49
2023-05-06T03:28:43.120Z,9.47
2023-05-06T03:31:00.430Z,9.46
2023-05-06T03:33:17.752Z,9.46
2023-05-06T03:35:35.038Z,9.48
2023-05-06T03:37:52.296Z,9.52
2023-05-06T03:40:09.502Z,9.52
2023-05-06T03:42:26.443Z,9.52
2023-05-06T03:44:44.049Z,9.57
2023-05-06T03:47:00.935Z,9.58
2023-05-06T03:49:18.315Z,9.58
2023-05-06T03:51:35.597Z,9.58
2023-05-06T03:53:54.750Z,9.58
2023-05-06T03:56:12.712Z,9.59
2023-05-06T03:58:30.029Z,9.59
2023-05-06T04:00:47.637Z,9.60
2023-05-06T04:03:05.898Z,9.61
2023-05-06T04:05:23.266Z,9.61
2023-05-06T04:07:40.903Z,9.65
2023-05-06T04:09:58.544Z,9.68
2023-05-06T04:12:15.740Z,9.71
2023-05-06T04:14:32.969Z,9.72
2023-05-06T04:16:50.258Z,9.73
2023-05-06T04:19:07.521Z,9.68
2023-05-06T04:21:24.831Z,9.64
2023-05-06T04:23:43.146Z,9.62
2023-05-06T04:26:00.429Z,9.63
2023-05-06T04:28:18.118Z,9.65
2023-05-06T04:30:35.351Z,9.65
2023-05-06T04:32:52.699Z,9.61
2023-05-06T04:35:10.195Z,9.61
2023-05-06T04:37:27.667Z,9.59
2023-05-06T04:39:44.634Z,9.53
2023-05-06T04:42:01.878Z,9.50
2023-05-06T04:44:19.008Z,9.50
2023-05-06T04:46:36.069Z,9.53
2023-05-06T04:48:53.348Z,9.57
2023-05-06T04:51:10.769Z,9.59
2023-05-06T04:53:29.136Z,9.61
2023-05-06T04:55:46.032Z,9.63
2023-05-06T04:58:03.711Z,9.66
2023-05-06T05:00:20.741Z,9.71
2023-05-06T05:02:38.561Z,9.74
2023-05-06T05:04:55.904Z,9.78
2023-05-06T05:07:12.804Z,9.83
2023-05-06T05:09:30.483Z,9.85
2023-05-06T05:11:47.534Z,9.88
2023-05-06T05:14:04.453Z,9.96
2023-05-06T05:16:22.788Z,10.01
2023-05-06T05:18:40.241Z,10.04
2023-05-06T05:20:57.567Z,10.13
2023-05-06T05:23:15.290Z,10.17
2023-05-06T05:25:32.591Z,10.21
2023-05-06T05:27:49.908Z,10.23
2023-05-06T05:30:07.225Z,10.24
2023-05-06T05:32:24.348Z,10.26
2023-05-06T05:34:44.078Z,10.33
2023-05-06T05:37:01.044Z,10.37
2023-05-06T05:39:18.012Z,10.42
2023-05-06T05:41:35.608Z,10.50
2023-05-06T05:43:53.223Z,10.59
2023-05-06T05:46:10.532Z,10.63
2023-05-06T05:48:28.245Z,10.68
2023-05-06T05:50:45.533Z,10.73
2023-05-06T05:53:02.862Z,10.79
2023-05-06T05:55:19.818Z,10.85
2023-05-06T05:57:37.105Z,10.89
2023-05-06T05:59:54.017Z,10.91
2023-05-06T06:02:11.316Z,10.93
2023-05-06T06:04:28.567Z,10.99
2023-05-06T06:06:45.883Z,11.03
2023-05-06T06:09:02.783Z,11.08
2023-05-06T06:11:20.054Z,11.13
2023-05-06T06:13:38.294Z,11.14
2023-05-06T06:15:55.799Z,11.20
2023-05-06T06:18:13.032Z,11.33
2023-05-06T06:20:30.425Z,11.48
2023-05-06T06:22:47.723Z,11.65
2023-05-06T06:25:05.467Z,11.81
2023-05-06T06:27:22.819Z,11.97
2023-05-06T06:29:39.772Z,12.13
2023-05-06T06:31:57.110Z,12.25
2023-05-06T06:34:14.504Z,12.37
2023-05-06T06:36:31.735Z,12.41
2023-05-06T06:38:49.947Z,12.58
2023-05-06T06:41:07.206Z,12.71
2023-05-06T06:43:24.450Z,12.93
2023-05-06T06:45:41.320Z,13.15
2023-05-06T06:47:58.639Z,13.33
2023-05-06T06:50:16.312Z,13.50
2023-05-06T06:52:33.983Z,13.62
2023-05-06T06:54:51.282Z,13.74
2023-05-06T06:57:08.269Z,13.83
2023-05-06T06:59:25.628Z,14.03
2023-05-06T07:01:43.721Z,14.24
2023-05-06T07:04:01.003Z,14.43
2023-05-06T07:06:19.288Z,14.65
2023-05-06T07:08:36.644Z,14.83
2023-05-06T07:10:53.974Z,14.91
2023-05-06T07:13:11.300Z,15.01
2023-05-06T07:15:28.284Z,15.09
2023-05-06T07:17:45.563Z,15.15
2023-05-06T07:20:02.813Z,15.19
2023-05-06T07:22:21.114Z,15.29
2023-05-06T07:24:38.515Z,15.38
2023-05-06T07:26:55.434Z,15.57
2023-05-06T07:29:12.479Z,15.82
2023-05-06T07:31:29.923Z,16.03
2023-05-06T07:33:47.303Z,16.30
2023-05-06T07:36:05.144Z,16.45
2023-05-06T07:38:22.888Z,16.64
2023-05-06T07:40:40.157Z,16.78
2023-05-06T07:42:57.451Z,16.85
2023-05-06T07:45:16.304Z,16.95
2023-05-06T07:47:33.753Z,16.98
2023-05-06T07:49:51.595Z,17.00
2023-05-06T07:52:09.452Z,16.94
2023-05-06T07:54:26.667Z,16.99
2023-05-06T07:56:44.121Z,17.00
2023-05-06T07:59:01.120Z,17.01
2023-05-06T08:01:18.070Z,17.08
2023-05-06T08:03:35.573Z,17.15
2023-05-06T08:05:53.040Z,17.15
2023-05-06T08:08:10.275Z,17.02
2023-05-06T08:10:27.601Z,17.09
2023-05-06T08:12:44.867Z,17.17
2023-05-06T08:15:02.797Z,17.20
2023-05-06T08:17:21.142Z,17.28
2023-05-06T08:19:38.526Z,17.29
2023-05-06T08:21:56.009Z,17.39
2023-05-06T08:24:13.349Z,17.45
2023-05-06T08:26:30.629Z,17.47
2023-05-06T08:28:47.520Z,17.54
2023-05-06T08:31:04.830Z,17.61
2023-05-06T08:33:22.131Z,17.61
2023-05-06T08:35:39.223Z,17.59
2023-05-06T08:37:56.556Z,17.54
2023-05-06T08:40:13.772Z,17.61
2023-05-06T08:42:31.050Z,17.81
2023-05-06T08:44:48.309Z,18.13
2023-05-06T08:47:06.607Z,18.48
2023-05-06T08:49:23.649Z,18.75
2023-05-06T08:51:40.987Z,18.87
2023-05-06T08:53:59.250Z,19.05
2023-05-06T08:56:16.566Z,19.17
2023-05-06T08:58:33.881Z,19.35
2023-05-06T09:00:51.158Z,19.51
2023-05-06T09:03:08.510Z,19.68
2023-05-06T09:05:25.870Z,19.81
2023-05-06T09:07:43.119Z,19.70
2023-05-06T09:10:00.403Z,19.86
2023-05-06T09:12:17.770Z,19.97
2023-05-06T09:14:35.107Z,20.08
2023-05-06T09:16:53.331Z,19.83
2023-05-06T09:19:10.782Z,19.77
2023-05-06T09:21:28.022Z,19.89
2023-05-06T09:23:46.259Z,19.80
2023-05-06T09:26:03.492Z,19.87
2023-05-06T09:28:20.798Z,20.02
2023-05-06T09:30:38.150Z,20.21
2023-05-06T09:32:56.519Z,20.48
2023-05-06T09:35:14.529Z,20.64
2023-05-06T09:37:32.025Z,20.41
2023-05-06T09:39:49.349Z,20.29
2023-05-06T09:42:06.565Z,20.12
2023-05-06T09:44:24.176Z,20.11
2023-05-06T09:46:42.538Z,19.77
2023-05-06T09:48:59.862Z,19.62
2023-05-06T09:51:17.617Z,19.63
2023-05-06T09:53:37.424Z,19.69
2023-05-06T09:55:54.498Z,19.69
2023-05-06T09:58:12.529Z,19.75
2023-05-06T10:00:29.785Z,19.63
2023-05-06T10:02:47.230Z,19.65
2023-05-06T10:05:04.896Z,19.45
2023-05-06T10:07:21.848Z,19.53
2023-05-06T10:09:39.134Z,19.62
2023-05-06T10:11:56.807Z,19.60
2023-05-06T10:14:14.088Z,19.68
2023-05-06T10:16:31.390Z,19.91
2023-05-06T10:18:49.120Z,19.93
2023-05-06T10:21:06.391Z,20.03
2023-05-06T10:23:23.659Z,19.93
2023-05-06T10:25:41.852Z,19.94
2023-05-06T10:27:59.080Z,19.81
2023-05-06T10:30:19.493Z,19.68
2023-05-06T10:32:36.615Z,19.57
2023-05-06T10:34:54.064Z,19.43
2023-05-06T10:37:11.126Z,19.26
2023-05-06T10:39:28.427Z,19.10
2023-05-06T10:41:45.721Z,19.01
2023-05-06T10:44:02.793Z,18.94
2023-05-06T10:46:20.043Z,18.82
2023-05-06T10:48:37.365Z,18.77
2023-05-06T10:50:55.119Z,18.72
2023-05-06T10:53:12.356Z,18.70
2023-05-06T10:55:29.671Z,18.72
2023-05-06T10:57:46.583Z,18.68
2023-05-06T11:00:03.896Z,18.75
2023-05-06T11:02:21.433Z,18.82
2023-05-06T11:04:39.279Z,18.89
2023-05-06T11:06:56.573Z,18.91
2023-05-06T11:09:13.482Z,18.93
2023-05-06T11:11:30.721Z,18.98
2023-05-06T11:13:50.018Z,19.02
2023-05-06T11:16:08.310Z,19.08
2023-05-06T11:18:25.207Z,19.27
2023-05-06T11:20:42.526Z,19.44
2023-05-06T11:22:59.438Z,19.59
2023-05-06T11:25:16.701Z,19.72
2023-05-06T11:27:34.043Z,19.80
2023-05-06T11:29:51.312Z,19.84
2023-05-06T11:32:09.583Z,19.98
2023-05-06T11:34:27.303Z,20.08
2023-05-06T11:36:44.744Z,20.36
2023-05-06T11:39:03.430Z,20.72
2023-05-06T11:41:22.580Z,21.25
2023-05-06T11:43:39.822Z,21.52
2023-05-06T11:45:57.204Z,21.79
2023-05-06T11:48:14.234Z,22.17
2023-05-06T11:50:31.255Z,22.40
2023-05-06T11:52:48.434Z,22.43
2023-05-06T11:55:06.646Z,22.54
2023-05-06T11:57:26.288Z,22.60
2023-05-06T11:59:43.513Z,22.46
2023-05-06T12:02:01.126Z,22.23
2023-05-06T12:04:18.515Z,22.04
2023-05-06T12:06:36.229Z,21.79
2023-05-06T12:08:53.544Z,21.70
2023-05-06T12:11:11.763Z,21.56
2023-05-06T12:13:28.991Z,21.52
2023-05-06T12:15:46.677Z,21.45
2023-05-06T12:18:04.499Z,21.42
2023-05-06T12:20:21.921Z,21.36
2023-05-06T12:22:39.571Z,21.28
2023-05-06T12:24:56.828Z,21.31
2023-05-06T12:27:14.726Z,21.28
2023-05-06T12:29:31.974Z,21.38
2023-05-06T12:31:49.355Z,21.48
2023-05-06T12:34:06.704Z,21.62
2023-05-06T12:36:25.012Z,21.64
2023-05-06T12:38:43.253Z,21.53
2023-05-06T12:41:00.949Z,21.54
2023-05-06T12:43:18.263Z,21.49
2023-05-06T12:45:35.317Z,21.42
2023-05-06T12:47:52.786Z,21.59
2023-05-06T12:50:10.446Z,21.80
2023-05-06T12:52:27.951Z,21.95
2023-05-06T12:54:45.247Z,22.08
2023-05-06T12:57:02.212Z,22.12
2023-05-06T12:59:19.499Z,22.14
2023-05-06T13:01:37.908Z,22.13
2023-05-06T13:03:55.281Z,21.90
2023-05-06T13:06:12.618Z,21.91
2023-05-06T13:08:29.943Z,21.76
2023-05-06T13:10:47.231Z,21.60
2023-05-06T13:13:04.470Z,21.49
2023-05-06T13:15:21.458Z,21.34
2023-05-06T13:17:38.448Z,21.27
2023-05-06T13:19:56.724Z,21.28
2023-05-06T13:22:14.041Z,21.27
2023-05-06T13:24:31.287Z,21.39
2023-05-06T13:26:48.607Z,21.54
2023-05-06T13:29:05.866Z,21.67
2023-05-06T13:31:24.187Z,21.81
2023-05-06T13:33:41.465Z,21.88
2023-05-06T13:35:58.550Z,21.90
2023-05-06T13:38:15.832Z,21.79
2023-05-06T13:40:33.142Z,21.86
2023-05-06T13:42:50.381Z,21.91
2023-05-06T13:45:08.110Z,21.88
2023-05-06T13:47:25.398Z,21.68
2023-05-06T13:49:42.379Z,21.61
2023-05-06T13:51:59.619Z,21.65
2023-05-06T13:54:16.964Z,21.50
2023-05-06T13:56:34.227Z,21.45
2023-05-06T13:58:51.873Z,21.39
2023-05-06T14:01:09.156Z,21.36
2023-05-06T14:03:27.510Z,21.22
2023-05-06T14:05:44.740Z,21.31
2023-05-06T14:08:01.667Z,21.21
2023-05-06T14:10:19.877Z,21.16
2023-05-06T14:12:37.204Z,21.21
2023-05-06T14:14:54.509Z,21.24
2023-05-06T14:17:11.755Z,21.21
2023-05-06T14:19:29.015Z,21.22
2023-05-06T14:21:46.335Z,21.13
2023-05-06T14:24:06.146Z,21.07
2023-05-06T14:26:24.664Z,20.99
2023-05-06T14:28:41.938Z,20.87
2023-05-06T14:31:00.230Z,20.71
2023-05-06T14:33:18.481Z,20.61
2023-05-06T14:35:35.801Z,20.48
2023-05-06T14:37:53.007Z,20.40
2023-05-06T14:40:10.682Z,20.30
2023-05-06T14:42:28.197Z,20.25
2023-05-06T14:44:45.401Z,20.22
2023-05-06T14:47:02.636Z,20.21
2023-05-06T14:49:19.933Z,20.17
2023-05-06T14:51:37.577Z,20.13
2023-05-06T14:53:55.981Z,20.12
2023-05-06T14:56:14.213Z,20.05
2023-05-06T14:58:32.465Z,19.97
2023-05-06T15:00:50.717Z,19.89
2023-05-06T15:03:08.179Z,19.80
2023-05-06T15:05:25.511Z,19.74
2023-05-06T15:07:43.289Z,19.71
2023-05-06T15:10:00.760Z,19.64
2023-05-06T15:12:17.782Z,19.59
2023-05-06T15:14:35.001Z,19.57
2023-05-06T15:16:52.832Z,19.52
2023-05-06T15:19:10.479Z,19.46
2023-05-06T15:21:27.829Z,19.42
2023-05-06T15:23:45.546Z,19.39
2023-05-06T15:26:02.920Z,19.36
2023-05-06T15:28:21.366Z,19.35
2023-05-06T15:30:40.370Z,19.35
2023-05-06T15:32:58.957Z,19.32
2023-05-06T15:35:16.366Z,19.30
2023-05-06T15:37:33.672Z,19.32
2023-05-06T15:39:50.921Z,19.32
2023-05-06T15:42:09.278Z,19.30
2023-05-06T15:44:27.016Z,19.28
2023-05-06T15:46:44.579Z,19.28
2023-05-06T15:49:31.977Z,19.28
2023-05-06T15:51:40.002Z,19.28
2023-05-06T15:53:56.942Z,19.30
2023-05-06T15:56:18.578Z,19.35
2023-05-06T15:58:36.218Z,19.33
2023-05-06T16:00:53.625Z,19.34
2023-05-06T16:03:12.439Z,19.33
2023-05-06T16:05:30.134Z,19.30
2023-05-06T16:07:47.453Z,19.28
2023-05-06T16:10:04.795Z,19.28
2023-05-06T16:12:24.340Z,19.31
2023-05-06T16:14:41.457Z,19.36
2023-05-06T16:16:58.523Z,19.34
2023-05-06T16:19:15.786Z,19.30
2023-05-06T16:21:33.064Z,19.29
2023-05-06T16:23:50.230Z,19.26
2023-05-06T16:26:07.570Z,19.22
2023-05-06T16:28:24.536Z,19.15
2023-05-06T16:30:41.868Z,19.11
2023-05-06T16:32:59.171Z,19.08
2023-05-06T16:35:16.354Z,19.04
2023-05-06T16:37:33.424Z,19.02
2023-05-06T16:39:50.862Z,18.98
2023-05-06T16:42:09.216Z,18.96
2023-05-06T16:44:26.597Z,18.97
2023-05-06T16:46:43.848Z,18.95
2023-05-06T16:49:00.921Z,18.96
2023-05-06T16:51:18.860Z,18.92
2023-05-06T16:53:36.116Z,18.93
2023-05-06T16:55:55.325Z,19.01
2023-05-06T16:58:12.516Z,18.96
2023-05-06T17:00:30.247Z,18.95
2023-05-06T17:02:47.654Z,18.92
2023-05-06T17:05:05.007Z,18.89
2023-05-06T17:07:22.429Z,18.87
2023-05-06T17:09:41.670Z,18.87
2023-05-06T17:11:58.974Z,18.81
2023-05-06T17:14:17.333Z,18.82
2023-05-06T17:16:35.073Z,18.82
2023-05-06T17:18:53.436Z,18.80
2023-05-06T17:21:10.802Z,18.74
2023-05-06T17:23:27.890Z,18.66
2023-05-06T17:25:45.615Z,18.59
2023-05-06T17:28:05.174Z,18.53
2023-05-06T17:30:22.858Z,18.49
2023-05-06T17:32:40.941Z,18.47
2023-05-06T17:34:57.941Z,18.46
2023-05-06T17:37:16.550Z,18.43
2023-05-06T17:39:35.806Z,18.39
2023-05-06T17:41:53.049Z,18.34
2023-05-06T17:44:10.429Z,18.34
2023-05-06T17:46:27.752Z,18.28
2023-05-06T17:48:46.159Z,18.24
2023-05-06T17:51:05.604Z,18.19
2023-05-06T17:53:22.582Z,18.15
2023-05-06T17:55:39.591Z,18.09
2023-05-06T17:57:58.836Z,18.05
2023-05-06T18:00:16.115Z,18.03
2023-05-06T18:02:33.961Z,18.01
2023-05-06T18:04:52.289Z,17.98
2023-05-06T18:07:09.219Z,17.94
2023-05-06T18:09:26.852Z,17.86
2023-05-06T18:11:43.730Z,17.80
2023-05-06T18:14:00.945Z,17.75
2023-05-06T18:16:18.222Z,17.72
2023-05-06T18:18:35.603Z,17.66
2023-05-06T18:20:52.944Z,17.63
2023-05-06T18:23:11.020Z,17.60
2023-05-06T18:25:28.387Z,17.57
2023-05-06T18:27:45.642Z,17.53
2023-05-06T18:30:03.002Z,17.48
2023-05-06T18:32:20.329Z,17.44
2023-05-06T18:34:37.586Z,17.42
2023-05-06T18:36:55.850Z,17.36
2023-05-06T18:39:13.089Z,17.33
2023-05-06T18:41:30.366Z,17.30
2023-05-06T18:43:47.735Z,17.21
2023-05-06T18:46:06.015Z,17.14
2023-05-06T18:48:23.388Z,17.08
2023-05-06T18:50:40.722Z,17.04
2023-05-06T18:52:58.999Z,16.95
2023-05-06T18:55:16.271Z,16.88
2023-05-06T18:57:33.500Z,16.80
2023-05-06T18:59:51.705Z,16.73
2023-05-06T19:02:09.021Z,16.64
2023-05-06T19:04:26.416Z,16.56
2023-05-06T19:06:44.057Z,16.47
2023-05-06T19:09:01.286Z,16.41
2023-05-06T19:11:18.269Z,16.33
2023-05-06T19:13:35.152Z,16.25
2023-05-06T19:15:53.439Z,16.12
2023-05-06T19:18:11.682Z,16.03
2023-05-06T19:20:28.661Z,15.97
2023-05-06T19:22:45.900Z,15.94
2023-05-06T19:25:03.275Z,15.91
2023-05-06T19:27:20.204Z,15.84
2023-05-06T19:29:37.677Z,15.77
2023-05-06T19:31:54.967Z,15.70
2023-05-06T19:34:12.293Z,15.63
2023-05-06T19:36:30.549Z,15.57
2023-05-06T19:38:47.558Z,15.53
2023-05-06T19:41:04.856Z,15.49
2023-05-06T19:43:23.152Z,15.42
2023-05-06T19:45:40.387Z,15.37
2023-05-06T19:47:57.677Z,15.32
2023-05-06T19:50:15.025Z,15.29
2023-05-06T19:52:32.290Z,15.26
2023-05-06T19:54:52.298Z,15.24
2023-05-06T19:57:09.785Z,15.20
2023-05-06T19:59:27.044Z,15.16
2023-05-06T20:01:44.437Z,15.09
2023-05-06T20:04:01.960Z,15.03
2023-05-06T20:06:19.323Z,15.01
2023-05-06T20:08:36.659Z,14.97
2023-05-06T20:10:53.983Z,14.94
2023-05-06T20:13:11.301Z,14.92
2023-05-06T20:15:29.616Z,14.88
2023-05-06T20:17:47.922Z,14.82
2023-05-06T20:20:05.299Z,14.79
2023-05-06T20:22:22.253Z,14.73
2023-05-06T20:24:39.495Z,14.66
2023-05-06T20:26:56.503Z,14.62
2023-05-06T20:29:14.772Z,14.60
2023-05-06T20:31:32.116Z,14.59
2023-05-06T20:33:49.260Z,14.56
2023-05-06T20:36:06.562Z,14.52
2023-05-06T20:38:23.812Z,14.50
2023-05-06T20:40:41.128Z,14.45
2023-05-06T20:42:58.443Z,14.41
2023-05-06T20:45:15.352Z,14.34
2023-05-06T20:47:33.747Z,14.30
2023-05-06T20:49:52.113Z,14.25
2023-05-06T20:52:09.418Z,14.22
2023-05-06T20:54:26.999Z,14.22
2023-05-06T20:56:44.065Z,14.20
2023-05-06T20:59:02.616Z,14.14
2023-05-06T21:01:20.897Z,14.10
2023-05-06T21:03:38.311Z,14.08
2023-05-06T21:05:56.556Z,14.05
2023-05-06T21:08:13.546Z,14.01
2023-05-06T21:10:30.770Z,14.02
2023-05-06T21:12:47.839Z,13.99
2023-05-06T21:15:05.207Z,13.97
2023-05-06T21:17:22.497Z,13.97
2023-05-06T21:19:39.821Z,13.95
2023-05-06T21:21:56.759Z,13.95
2023-05-06T21:24:14.105Z,13.94
2023-05-06T21:26:31.177Z,13.93
2023-05-06T21:28:48.335Z,13.93
2023-05-06T21:31:05.994Z,13.91
2023-05-06T21:33:23.125Z,13.90
2023-05-06T21:35:40.581Z,13.88
2023-05-06T21:37:57.833Z,13.86
2023-05-06T21:40:15.119Z,13.84
2023-05-06T21:42:32.495Z,13.85
2023-05-06T21:44:49.755Z,13.84
2023-05-06T21:47:07.094Z,13.82
2023-05-06T21:49:24.000Z,13.80
2023-05-06T21:51:41.718Z,13.79
2023-05-06T21:53:59.084Z,13.75
2023-05-06T21:56:16.152Z,13.73
2023-05-06T21:58:33.442Z,13.72
2023-05-06T22:00:50.810Z,13.69
2023-05-06T22:03:08.932Z,13.66
2023-05-06T22:05:26.464Z,13.63
2023-05-06T22:07:44.620Z,13.59
2023-05-06T22:10:01.951Z,13.56
2023-05-06T22:12:19.175Z,13.50
2023-05-06T22:14:40.888Z,13.44
2023-05-06T22:16:58.652Z,13.40
2023-05-06T22:19:16.967Z,13.35
2023-05-06T22:21:34.290Z,13.31
2023-05-06T22:23:51.503Z,13.25
2023-05-06T22:26:08.738Z,13.23
2023-05-06T22:28:25.995Z,13.18
2023-05-06T22:30:43.110Z,13.13
2023-05-06T22:32:59.976Z,13.09
2023-05-06T22:35:17.354Z,13.06
2023-05-06T22:37:35.648Z,13.00
2023-05-06T22:39:53.396Z,12.97
2023-05-06T22:42:10.620Z,12.92
2023-05-06T22:44:27.890Z,12.85
2023-05-06T22:46:44.826Z,12.80
2023-05-06T22:49:09.577Z,12.76
2023-05-06T22:51:26.973Z,12.72
2023-05-06T22:53:44.587Z,12.69
2023-05-06T22:56:02.373Z,12.67
2023-05-06T22:58:19.258Z,12.66
2023-05-06T23:00:36.960Z,12.61
2023-05-06T23:02:53.889Z,12.58
2023-05-06T23:05:10.933Z,12.56
2023-05-06T23:07:28.809Z,12.53
2023-05-06T23:09:46.095Z,12.51
2023-05-06T23:12:03.400Z,12.46
2023-05-06T23:14:20.720Z,12.43
2023-05-06T23:16:38.454Z,12.38
2023-05-06T23:18:56.133Z,12.38
2023-05-06T23:21:13.426Z,12.34
2023-05-06T23:23:30.693Z,12.32
2023-05-06T23:25:48.024Z,12.31
2023-05-06T23:28:05.982Z,12.31
2023-05-06T23:30:23.351Z,12.27
2023-05-06T23:32:40.659Z,12.25
2023-05-06T23:34:58.877Z,12.21
2023-05-06T23:37:16.128Z,12.18
2023-05-06T23:39:33.436Z,12.13
2023-05-06T23:41:51.164Z,12.04
2023-05-06T23:44:10.202Z,11.99
2023-05-06T23:46:27.512Z,11.96
2023-05-06T23:48:44.856Z,11.92
2023-05-06T23:51:02.226Z,11.88
2023-05-06T23:53:19.552Z,11.85
2023-05-06T23:55:36.552Z,11.81
2023-05-06T23:57:53.850Z,11.78
